sensor_id;sensor_type;location;lat;lon;timestamp;P1;durP1;ratioP1;P2;durP2;ratioP2
54197;SDS011;40105;52.366;17.000;2023-03-30T00:01:50;43.42;;;14.13;;
54197;SDS011;40105;52.366;17.000;2023-03-30T00:04:15;18.60;;;8.27;;
54197;SDS011;40105;52.366;17.000;2023-03-30T00:06:42;19.38;;;8.10;;
54197;SDS011;40105;52.366;17.000;2023-03-30T00:09:08;30.60;;;9.77;;
54197;SDS011;40105;52.366;17.000;2023-03-30T00:11:33;17.05;;;6.63;;
54197;SDS011;40105;52.366;17.000;2023-03-30T00:13:59;25.08;;;8.20;;
54197;SDS011;40105;52.366;17.000;2023-03-30T00:16:24;48.93;;;11.60;;
54197;SDS011;40105;52.366;17.000;2023-03-30T00:18:50;25.70;;;8.90;;
54197;SDS011;40105;52.366;17.000;2023-03-30T00:21:15;19.38;;;9.10;;
54197;SDS011;40105;52.366;17.000;2023-03-30T00:23:44;19.33;;;8.13;;
54197;SDS011;40105;52.366;17.000;2023-03-30T00:26:12;17.33;;;8.15;;
54197;SDS011;40105;52.366;17.000;2023-03-30T00:28:38;17.70;;;7.63;;
54197;SDS011;40105;52.366;17.000;2023-03-30T00:31:03;30.20;;;10.47;;
54197;SDS011;40105;52.366;17.000;2023-03-30T00:33:29;26.10;;;9.03;;
54197;SDS011;40105;52.366;17.000;2023-03-30T00:35:55;19.17;;;9.40;;
54197;SDS011;40105;52.366;17.000;2023-03-30T00:38:20;19.02;;;9.05;;
54197;SDS011;40105;52.366;17.000;2023-03-30T00:40:56;22.57;;;8.07;;
54197;SDS011;40105;52.366;17.000;2023-03-30T00:43:21;27.63;;;8.60;;
54197;SDS011;40105;52.366;17.000;2023-03-30T00:45:47;24.92;;;8.57;;
54197;SDS011;40105;52.366;17.000;2023-03-30T00:48:13;21.88;;;9.45;;
54197;SDS011;40105;52.366;17.000;2023-03-30T00:50:46;25.52;;;8.40;;
54197;SDS011;40105;52.366;17.000;2023-03-30T00:53:12;15.18;;;8.32;;
54197;SDS011;40105;52.366;17.000;2023-03-30T00:55:40;18.80;;;8.02;;
54197;SDS011;40105;52.366;17.000;2023-03-30T00:58:05;20.75;;;9.18;;
54197;SDS011;40105;52.366;17.000;2023-03-30T01:00:32;21.00;;;9.57;;
54197;SDS011;40105;52.366;17.000;2023-03-30T01:02:59;24.98;;;8.52;;
54197;SDS011;40105;52.366;17.000;2023-03-30T01:05:24;19.15;;;8.57;;
54197;SDS011;40105;52.366;17.000;2023-03-30T01:07:50;25.85;;;10.43;;
54197;SDS011;40105;52.366;17.000;2023-03-30T01:10:16;19.73;;;8.43;;
54197;SDS011;40105;52.366;17.000;2023-03-30T01:12:41;20.75;;;8.70;;
54197;SDS011;40105;52.366;17.000;2023-03-30T01:15:07;18.95;;;7.75;;
54197;SDS011;40105;52.366;17.000;2023-03-30T01:23:04;18.23;;;7.82;;
54197;SDS011;40105;52.366;17.000;2023-03-30T01:36:26;23.83;;;8.18;;
54197;SDS011;40105;52.366;17.000;2023-03-30T01:43:57;19.35;;;9.10;;
54197;SDS011;40105;52.366;17.000;2023-03-30T01:46:37;16.85;;;8.60;;
54197;SDS011;40105;52.366;17.000;2023-03-30T01:49:08;23.80;;;9.60;;
54197;SDS011;40105;52.366;17.000;2023-03-30T01:51:40;18.48;;;9.05;;
54197;SDS011;40105;52.366;17.000;2023-03-30T01:54:11;17.33;;;8.85;;
54197;SDS011;40105;52.366;17.000;2023-03-30T01:56:39;13.73;;;8.07;;
54197;SDS011;40105;52.366;17.000;2023-03-30T02:01:46;25.05;;;7.68;;
54197;SDS011;40105;52.366;17.000;2023-03-30T02:04:14;16.17;;;8.40;;
54197;SDS011;40105;52.366;17.000;2023-03-30T02:06:42;19.42;;;9.32;;
54197;SDS011;40105;52.366;17.000;2023-03-30T02:09:15;55.45;;;15.82;;
54197;SDS011;40105;52.366;17.000;2023-03-30T02:11:42;25.63;;;11.45;;
54197;SDS011;40105;52.366;17.000;2023-03-30T02:14:09;23.50;;;10.65;;
54197;SDS011;40105;52.366;17.000;2023-03-30T02:16:45;25.52;;;10.60;;
54197;SDS011;40105;52.366;17.000;2023-03-30T02:19:11;30.33;;;10.65;;
54197;SDS011;40105;52.366;17.000;2023-03-30T02:21:36;23.40;;;9.30;;
54197;SDS011;40105;52.366;17.000;2023-03-30T02:24:02;23.08;;;9.73;;
54197;SDS011;40105;52.366;17.000;2023-03-30T02:26:29;18.42;;;8.95;;
54197;SDS011;40105;52.366;17.000;2023-03-30T02:28:54;21.17;;;10.10;;
54197;SDS011;40105;52.366;17.000;2023-03-30T02:31:20;22.60;;;10.15;;
54197;SDS011;40105;52.366;17.000;2023-03-30T02:33:51;26.02;;;11.07;;
54197;SDS011;40105;52.366;17.000;2023-03-30T02:41:49;17.48;;;8.73;;
54197;SDS011;40105;52.366;17.000;2023-03-30T02:47:11;29.15;;;10.88;;
54197;SDS011;40105;52.366;17.000;2023-03-30T02:49:44;18.85;;;8.85;;
54197;SDS011;40105;52.366;17.000;2023-03-30T02:55:32;17.70;;;9.02;;
54197;SDS011;40105;52.366;17.000;2023-03-30T02:58:00;23.38;;;10.02;;
54197;SDS011;40105;52.366;17.000;2023-03-30T03:00:29;21.13;;;9.43;;
54197;SDS011;40105;52.366;17.000;2023-03-30T03:02:57;21.77;;;10.57;;
54197;SDS011;40105;52.366;17.000;2023-03-30T03:05:24;23.23;;;9.98;;
54197;SDS011;40105;52.366;17.000;2023-03-30T03:07:50;24.45;;;10.75;;
54197;SDS011;40105;52.366;17.000;2023-03-30T03:10:16;21.42;;;9.70;;
54197;SDS011;40105;52.366;17.000;2023-03-30T03:12:41;32.33;;;10.45;;
54197;SDS011;40105;52.366;17.000;2023-03-30T03:15:07;17.92;;;9.18;;
54197;SDS011;40105;52.366;17.000;2023-03-30T03:17:32;23.08;;;10.75;;
54197;SDS011;40105;52.366;17.000;2023-03-30T03:20:03;24.17;;;11.50;;
54197;SDS011;40105;52.366;17.000;2023-03-30T03:22:29;24.98;;;9.70;;
54197;SDS011;40105;52.366;17.000;2023-03-30T03:24:54;20.00;;;10.82;;
54197;SDS011;40105;52.366;17.000;2023-03-30T03:27:19;23.08;;;10.43;;
54197;SDS011;40105;52.366;17.000;2023-03-30T03:29:45;25.60;;;10.77;;
54197;SDS011;40105;52.366;17.000;2023-03-30T03:32:10;20.80;;;10.70;;
54197;SDS011;40105;52.366;17.000;2023-03-30T03:34:35;22.77;;;10.83;;
54197;SDS011;40105;52.366;17.000;2023-03-30T03:37:00;16.27;;;9.27;;
54197;SDS011;40105;52.366;17.000;2023-03-30T03:39:26;23.38;;;11.45;;
54197;SDS011;40105;52.366;17.000;2023-03-30T03:41:51;25.97;;;10.90;;
54197;SDS011;40105;52.366;17.000;2023-03-30T03:44:16;23.20;;;11.88;;
54197;SDS011;40105;52.366;17.000;2023-03-30T03:46:41;22.70;;;12.07;;
54197;SDS011;40105;52.366;17.000;2023-03-30T03:49:07;30.93;;;12.03;;
54197;SDS011;40105;52.366;17.000;2023-03-30T03:51:32;23.53;;;11.87;;
54197;SDS011;40105;52.366;17.000;2023-03-30T03:53:57;30.60;;;12.15;;
54197;SDS011;40105;52.366;17.000;2023-03-30T03:56:23;26.33;;;12.35;;
54197;SDS011;40105;52.366;17.000;2023-03-30T03:58:49;27.73;;;12.23;;
54197;SDS011;40105;52.366;17.000;2023-03-30T04:01:14;25.33;;;12.00;;
54197;SDS011;40105;52.366;17.000;2023-03-30T04:03:39;21.73;;;11.57;;
54197;SDS011;40105;52.366;17.000;2023-03-30T04:06:05;27.38;;;13.80;;
54197;SDS011;40105;52.366;17.000;2023-03-30T04:08:31;27.90;;;12.68;;
54197;SDS011;40105;52.366;17.000;2023-03-30T04:11:02;28.53;;;13.10;;
54197;SDS011;40105;52.366;17.000;2023-03-30T04:13:27;26.67;;;11.80;;
54197;SDS011;40105;52.366;17.000;2023-03-30T04:15:53;26.37;;;13.10;;
54197;SDS011;40105;52.366;17.000;2023-03-30T04:18:18;24.90;;;12.30;;
54197;SDS011;40105;52.366;17.000;2023-03-30T04:20:43;26.13;;;13.48;;
54197;SDS011;40105;52.366;17.000;2023-03-30T04:23:08;24.27;;;13.43;;
54197;SDS011;40105;52.366;17.000;2023-03-30T04:25:34;27.67;;;13.55;;
54197;SDS011;40105;52.366;17.000;2023-03-30T04:28:00;29.13;;;14.45;;
54197;SDS011;40105;52.366;17.000;2023-03-30T04:30:25;32.60;;;14.23;;
54197;SDS011;40105;52.366;17.000;2023-03-30T04:32:50;24.33;;;13.20;;
54197;SDS011;40105;52.366;17.000;2023-03-30T04:35:27;23.05;;;12.68;;
54197;SDS011;40105;52.366;17.000;2023-03-30T04:37:52;33.28;;;12.60;;
54197;SDS011;40105;52.366;17.000;2023-03-30T04:40:17;25.95;;;12.55;;
54197;SDS011;40105;52.366;17.000;2023-03-30T04:42:43;29.42;;;12.85;;
54197;SDS011;40105;52.366;17.000;2023-03-30T04:45:14;23.02;;;12.75;;
54197;SDS011;40105;52.366;17.000;2023-03-30T04:47:40;29.90;;;12.80;;
54197;SDS011;40105;52.366;17.000;2023-03-30T04:50:05;29.33;;;14.07;;
54197;SDS011;40105;52.366;17.000;2023-03-30T04:52:30;26.15;;;14.32;;
54197;SDS011;40105;52.366;17.000;2023-03-30T04:54:56;34.40;;;14.70;;
54197;SDS011;40105;52.366;17.000;2023-03-30T04:57:21;32.20;;;15.03;;
54197;SDS011;40105;52.366;17.000;2023-03-30T04:59:46;22.50;;;12.93;;
54197;SDS011;40105;52.366;17.000;2023-03-30T05:02:11;31.23;;;15.20;;
54197;SDS011;40105;52.366;17.000;2023-03-30T05:04:37;35.53;;;13.77;;
54197;SDS011;40105;52.366;17.000;2023-03-30T05:07:03;26.77;;;14.60;;
54197;SDS011;40105;52.366;17.000;2023-03-30T05:09:28;32.28;;;14.43;;
54197;SDS011;40105;52.366;17.000;2023-03-30T05:11:53;35.23;;;15.90;;
54197;SDS011;40105;52.366;17.000;2023-03-30T05:14:18;30.10;;;15.53;;
54197;SDS011;40105;52.366;17.000;2023-03-30T05:16:43;35.07;;;16.23;;
54197;SDS011;40105;52.366;17.000;2023-03-30T05:19:09;28.70;;;14.17;;
54197;SDS011;40105;52.366;17.000;2023-03-30T05:21:34;32.85;;;15.90;;
54197;SDS011;40105;52.366;17.000;2023-03-30T05:23:59;29.37;;;16.43;;
54197;SDS011;40105;52.366;17.000;2023-03-30T05:26:25;34.10;;;15.48;;
54197;SDS011;40105;52.366;17.000;2023-03-30T05:28:50;33.30;;;18.05;;
54197;SDS011;40105;52.366;17.000;2023-03-30T05:31:16;36.45;;;17.20;;
54197;SDS011;40105;52.366;17.000;2023-03-30T05:33:42;36.65;;;16.65;;
54197;SDS011;40105;52.366;17.000;2023-03-30T05:36:07;32.10;;;16.50;;
54197;SDS011;40105;52.366;17.000;2023-03-30T05:38:32;36.63;;;19.88;;
54197;SDS011;40105;52.366;17.000;2023-03-30T05:40:57;31.23;;;17.27;;
54197;SDS011;40105;52.366;17.000;2023-03-30T05:43:22;33.37;;;16.27;;
54197;SDS011;40105;52.366;17.000;2023-03-30T05:45:48;36.05;;;20.50;;
54197;SDS011;40105;52.366;17.000;2023-03-30T05:48:13;30.52;;;16.98;;
54197;SDS011;40105;52.366;17.000;2023-03-30T05:50:38;44.30;;;18.77;;
54197;SDS011;40105;52.366;17.000;2023-03-30T05:53:03;43.17;;;18.87;;
54197;SDS011;40105;52.366;17.000;2023-03-30T05:55:28;39.10;;;21.93;;
54197;SDS011;40105;52.366;17.000;2023-03-30T05:57:54;41.75;;;21.15;;
54197;SDS011;40105;52.366;17.000;2023-03-30T06:00:20;41.53;;;20.23;;
54197;SDS011;40105;52.366;17.000;2023-03-30T06:02:46;45.38;;;19.65;;
54197;SDS011;40105;52.366;17.000;2023-03-30T06:05:12;41.85;;;20.48;;
54197;SDS011;40105;52.366;17.000;2023-03-30T06:07:37;50.15;;;21.10;;
54197;SDS011;40105;52.366;17.000;2023-03-30T06:10:02;44.53;;;20.07;;
54197;SDS011;40105;52.366;17.000;2023-03-30T06:12:29;37.42;;;20.45;;
54197;SDS011;40105;52.366;17.000;2023-03-30T06:14:54;74.43;;;35.58;;
54197;SDS011;40105;52.366;17.000;2023-03-30T06:17:20;61.53;;;33.22;;
54197;SDS011;40105;52.366;17.000;2023-03-30T06:19:45;48.22;;;22.77;;
54197;SDS011;40105;52.366;17.000;2023-03-30T06:22:11;45.78;;;20.23;;
54197;SDS011;40105;52.366;17.000;2023-03-30T06:24:36;44.80;;;22.43;;
54197;SDS011;40105;52.366;17.000;2023-03-30T06:27:01;40.23;;;21.97;;
54197;SDS011;40105;52.366;17.000;2023-03-30T06:29:27;33.85;;;19.80;;
54197;SDS011;40105;52.366;17.000;2023-03-30T06:31:53;32.65;;;17.13;;
54197;SDS011;40105;52.366;17.000;2023-03-30T06:34:18;30.43;;;16.90;;
54197;SDS011;40105;52.366;17.000;2023-03-30T06:36:44;35.17;;;18.83;;
54197;SDS011;40105;52.366;17.000;2023-03-30T06:39:10;34.90;;;16.02;;
54197;SDS011;40105;52.366;17.000;2023-03-30T06:41:35;32.03;;;15.43;;
54197;SDS011;40105;52.366;17.000;2023-03-30T06:44:00;30.60;;;15.30;;
54197;SDS011;40105;52.366;17.000;2023-03-30T06:46:26;28.73;;;13.83;;
54197;SDS011;40105;52.366;17.000;2023-03-30T06:48:51;27.38;;;15.05;;
54197;SDS011;40105;52.366;17.000;2023-03-30T06:51:17;29.50;;;16.80;;
54197;SDS011;40105;52.366;17.000;2023-03-30T06:53:42;28.80;;;14.13;;
54197;SDS011;40105;52.366;17.000;2023-03-30T06:56:07;32.00;;;16.33;;
54197;SDS011;40105;52.366;17.000;2023-03-30T06:58:32;30.50;;;15.65;;
54197;SDS011;40105;52.366;17.000;2023-03-30T07:00:58;28.83;;;13.65;;
54197;SDS011;40105;52.366;17.000;2023-03-30T07:03:23;28.70;;;14.45;;
54197;SDS011;40105;52.366;17.000;2023-03-30T07:05:50;25.80;;;15.25;;
54197;SDS011;40105;52.366;17.000;2023-03-30T07:08:16;31.73;;;15.50;;
54197;SDS011;40105;52.366;17.000;2023-03-30T07:10:42;29.73;;;18.52;;
54197;SDS011;40105;52.366;17.000;2023-03-30T07:13:07;38.50;;;16.23;;
54197;SDS011;40105;52.366;17.000;2023-03-30T07:15:32;24.63;;;14.57;;
54197;SDS011;40105;52.366;17.000;2023-03-30T07:17:58;32.50;;;17.23;;
54197;SDS011;40105;52.366;17.000;2023-03-30T07:20:23;43.60;;;18.08;;
54197;SDS011;40105;52.366;17.000;2023-03-30T07:22:48;30.90;;;15.40;;
54197;SDS011;40105;52.366;17.000;2023-03-30T07:25:14;29.97;;;14.43;;
54197;SDS011;40105;52.366;17.000;2023-03-30T07:27:39;32.23;;;16.83;;
54197;SDS011;40105;52.366;17.000;2023-03-30T07:30:05;35.00;;;16.38;;
54197;SDS011;40105;52.366;17.000;2023-03-30T07:32:31;30.75;;;16.15;;
54197;SDS011;40105;52.366;17.000;2023-03-30T07:34:57;31.75;;;16.23;;
54197;SDS011;40105;52.366;17.000;2023-03-30T07:37:22;40.80;;;18.25;;
54197;SDS011;40105;52.366;17.000;2023-03-30T07:39:47;29.13;;;15.95;;
54197;SDS011;40105;52.366;17.000;2023-03-30T07:42:12;36.88;;;17.85;;
54197;SDS011;40105;52.366;17.000;2023-03-30T07:44:38;56.67;;;24.80;;
54197;SDS011;40105;52.366;17.000;2023-03-30T07:47:03;47.90;;;25.03;;
54197;SDS011;40105;52.366;17.000;2023-03-30T07:49:30;55.67;;;27.88;;
54197;SDS011;40105;52.366;17.000;2023-03-30T07:51:55;115.10;;;47.70;;
54197;SDS011;40105;52.366;17.000;2023-03-30T07:54:20;83.50;;;38.70;;
54197;SDS011;40105;52.366;17.000;2023-03-30T07:56:46;63.13;;;29.45;;
54197;SDS011;40105;52.366;17.000;2023-03-30T07:59:17;47.50;;;23.08;;
54197;SDS011;40105;52.366;17.000;2023-03-30T08:01:43;45.25;;;24.30;;
54197;SDS011;40105;52.366;17.000;2023-03-30T08:04:08;58.67;;;31.23;;
54197;SDS011;40105;52.366;17.000;2023-03-30T08:06:35;68.03;;;31.13;;
54197;SDS011;40105;52.366;17.000;2023-03-30T08:09:00;43.10;;;24.93;;
54197;SDS011;40105;52.366;17.000;2023-03-30T08:11:25;52.83;;;28.53;;
54197;SDS011;40105;52.366;17.000;2023-03-30T08:13:50;40.17;;;19.40;;
54197;SDS011;40105;52.366;17.000;2023-03-30T08:16:15;37.53;;;18.17;;
54197;SDS011;40105;52.366;17.000;2023-03-30T08:18:40;31.73;;;15.87;;
54197;SDS011;40105;52.366;17.000;2023-03-30T08:21:06;25.43;;;13.90;;
54197;SDS011;40105;52.366;17.000;2023-03-30T08:23:31;27.33;;;14.10;;
54197;SDS011;40105;52.366;17.000;2023-03-30T08:25:57;30.43;;;12.90;;
54197;SDS011;40105;52.366;17.000;2023-03-30T08:28:22;31.10;;;13.75;;
54197;SDS011;40105;52.366;17.000;2023-03-30T08:30:48;32.00;;;13.60;;
54197;SDS011;40105;52.366;17.000;2023-03-30T08:33:13;26.40;;;12.98;;
54197;SDS011;40105;52.366;17.000;2023-03-30T08:35:39;27.17;;;14.13;;
54197;SDS011;40105;52.366;17.000;2023-03-30T08:38:05;34.08;;;17.40;;
54197;SDS011;40105;52.366;17.000;2023-03-30T08:40:30;32.80;;;15.10;;
54197;SDS011;40105;52.366;17.000;2023-03-30T08:43:02;33.27;;;13.30;;
54197;SDS011;40105;52.366;17.000;2023-03-30T08:45:34;30.08;;;15.75;;
54197;SDS011;40105;52.366;17.000;2023-03-30T08:48:00;37.95;;;17.50;;
54197;SDS011;40105;52.366;17.000;2023-03-30T08:50:30;22.15;;;13.57;;
54197;SDS011;40105;52.366;17.000;2023-03-30T08:52:56;36.97;;;17.70;;
54197;SDS011;40105;52.366;17.000;2023-03-30T08:55:22;27.20;;;13.98;;
54197;SDS011;40105;52.366;17.000;2023-03-30T09:00:44;20.33;;;11.75;;
54197;SDS011;40105;52.366;17.000;2023-03-30T09:05:53;18.48;;;9.82;;
54197;SDS011;40105;52.366;17.000;2023-03-30T09:08:23;26.52;;;10.68;;
54197;SDS011;40105;52.366;17.000;2023-03-30T09:10:55;24.40;;;13.98;;
54197;SDS011;40105;52.366;17.000;2023-03-30T09:13:22;30.42;;;12.52;;
54197;SDS011;40105;52.366;17.000;2023-03-30T09:15:59;26.52;;;12.80;;
54197;SDS011;40105;52.366;17.000;2023-03-30T09:18:30;19.08;;;11.25;;
54197;SDS011;40105;52.366;17.000;2023-03-30T09:20:59;21.25;;;11.38;;
54197;SDS011;40105;52.366;17.000;2023-03-30T09:23:25;23.55;;;11.48;;
54197;SDS011;40105;52.366;17.000;2023-03-30T09:33:29;17.13;;;9.90;;
54197;SDS011;40105;52.366;17.000;2023-03-30T09:36:02;19.25;;;9.82;;
54197;SDS011;40105;52.366;17.000;2023-03-30T09:38:30;22.63;;;10.02;;
54197;SDS011;40105;52.366;17.000;2023-03-30T09:41:10;21.02;;;10.10;;
54197;SDS011;40105;52.366;17.000;2023-03-30T09:43:39;18.33;;;9.52;;
54197;SDS011;40105;52.366;17.000;2023-03-30T09:46:07;19.48;;;10.93;;
54197;SDS011;40105;52.366;17.000;2023-03-30T09:48:36;16.98;;;9.23;;
54197;SDS011;40105;52.366;17.000;2023-03-30T09:51:01;26.33;;;8.32;;
54197;SDS011;40105;52.366;17.000;2023-03-30T09:53:27;14.88;;;8.48;;
54197;SDS011;40105;52.366;17.000;2023-03-30T09:55:58;14.93;;;8.40;;
54197;SDS011;40105;52.366;17.000;2023-03-30T09:58:33;17.30;;;7.57;;
54197;SDS011;40105;52.366;17.000;2023-03-30T10:01:06;15.13;;;7.53;;
54197;SDS011;40105;52.366;17.000;2023-03-30T10:03:32;13.75;;;7.72;;
54197;SDS011;40105;52.366;17.000;2023-03-30T10:06:01;14.18;;;7.95;;
54197;SDS011;40105;52.366;17.000;2023-03-30T10:08:27;13.65;;;7.50;;
54197;SDS011;40105;52.366;17.000;2023-03-30T10:10:53;13.50;;;7.18;;
54197;SDS011;40105;52.366;17.000;2023-03-30T10:13:19;17.58;;;7.80;;
54197;SDS011;40105;52.366;17.000;2023-03-30T10:15:45;18.75;;;9.10;;
54197;SDS011;40105;52.366;17.000;2023-03-30T10:18:29;17.13;;;8.27;;
54197;SDS011;40105;52.366;17.000;2023-03-30T10:21:02;23.50;;;8.95;;
54197;SDS011;40105;52.366;17.000;2023-03-30T10:23:34;21.67;;;9.75;;
54197;SDS011;40105;52.366;17.000;2023-03-30T10:26:04;15.10;;;8.35;;
54197;SDS011;40105;52.366;17.000;2023-03-30T10:28:32;18.33;;;8.50;;
54197;SDS011;40105;52.366;17.000;2023-03-30T10:31:02;14.32;;;7.68;;
54197;SDS011;40105;52.366;17.000;2023-03-30T10:33:28;21.13;;;7.80;;
54197;SDS011;40105;52.366;17.000;2023-03-30T10:35:54;16.05;;;7.78;;
54197;SDS011;40105;52.366;17.000;2023-03-30T10:38:21;15.48;;;6.55;;
54197;SDS011;40105;52.366;17.000;2023-03-30T10:40:47;14.25;;;7.10;;
54197;SDS011;40105;52.366;17.000;2023-03-30T10:43:18;11.70;;;7.28;;
54197;SDS011;40105;52.366;17.000;2023-03-30T10:45:49;19.67;;;7.63;;
54197;SDS011;40105;52.366;17.000;2023-03-30T10:48:22;15.40;;;7.40;;
54197;SDS011;40105;52.366;17.000;2023-03-30T10:53:26;15.38;;;7.72;;
54197;SDS011;40105;52.366;17.000;2023-03-30T11:03:17;17.58;;;8.75;;
54197;SDS011;40105;52.366;17.000;2023-03-30T11:05:51;15.85;;;7.43;;
54197;SDS011;40105;52.366;17.000;2023-03-30T11:08:19;20.60;;;7.70;;
54197;SDS011;40105;52.366;17.000;2023-03-30T11:10:51;17.10;;;9.63;;
54197;SDS011;40105;52.366;17.000;2023-03-30T11:18:12;18.38;;;8.95;;
54197;SDS011;40105;52.366;17.000;2023-03-30T11:20:41;20.25;;;8.05;;
54197;SDS011;40105;52.366;17.000;2023-03-30T11:23:10;17.40;;;8.32;;
54197;SDS011;40105;52.366;17.000;2023-03-30T11:25:48;20.15;;;8.70;;
54197;SDS011;40105;52.366;17.000;2023-03-30T11:28:37;17.85;;;9.10;;
54197;SDS011;40105;52.366;17.000;2023-03-30T11:31:18;19.70;;;9.15;;
54197;SDS011;40105;52.366;17.000;2023-03-30T11:33:48;15.73;;;7.85;;
54197;SDS011;40105;52.366;17.000;2023-03-30T11:36:17;14.77;;;8.15;;
54197;SDS011;40105;52.366;17.000;2023-03-30T11:38:55;22.75;;;8.93;;
54197;SDS011;40105;52.366;17.000;2023-03-30T11:41:30;18.95;;;9.38;;
54197;SDS011;40105;52.366;17.000;2023-03-30T11:43:58;16.15;;;7.78;;
54197;SDS011;40105;52.366;17.000;2023-03-30T11:46:28;17.77;;;9.10;;
54197;SDS011;40105;52.366;17.000;2023-03-30T11:54:23;15.90;;;9.40;;
54197;SDS011;40105;52.366;17.000;2023-03-30T12:04:50;35.25;;;18.63;;
54197;SDS011;40105;52.366;17.000;2023-03-30T12:09:54;19.45;;;9.77;;
54197;SDS011;40105;52.366;17.000;2023-03-30T12:12:25;20.27;;;9.55;;
54197;SDS011;40105;52.366;17.000;2023-03-30T12:15:01;16.88;;;10.05;;
54197;SDS011;40105;52.366;17.000;2023-03-30T12:17:34;19.05;;;9.80;;
54197;SDS011;40105;52.366;17.000;2023-03-30T12:20:13;18.65;;;9.85;;
54197;SDS011;40105;52.366;17.000;2023-03-30T12:25:23;17.95;;;10.35;;
54197;SDS011;40105;52.366;17.000;2023-03-30T12:27:55;23.65;;;11.25;;
54197;SDS011;40105;52.366;17.000;2023-03-30T12:30:25;25.30;;;13.15;;
54197;SDS011;40105;52.366;17.000;2023-03-30T12:32:55;21.88;;;8.93;;
54197;SDS011;40105;52.366;17.000;2023-03-30T12:38:05;24.00;;;11.27;;
54197;SDS011;40105;52.366;17.000;2023-03-30T12:40:30;16.42;;;7.75;;
54197;SDS011;40105;52.366;17.000;2023-03-30T12:43:05;17.20;;;8.70;;
54197;SDS011;40105;52.366;17.000;2023-03-30T12:45:34;13.63;;;8.77;;
54197;SDS011;40105;52.366;17.000;2023-03-30T13:05:56;29.38;;;8.57;;
54197;SDS011;40105;52.366;17.000;2023-03-30T13:08:39;14.13;;;7.82;;
54197;SDS011;40105;52.366;17.000;2023-03-30T13:11:10;20.52;;;8.95;;
54197;SDS011;40105;52.366;17.000;2023-03-30T13:16:13;21.13;;;8.65;;
54197;SDS011;40105;52.366;17.000;2023-03-30T13:18:59;21.25;;;8.20;;
54197;SDS011;40105;52.366;17.000;2023-03-30T13:21:24;17.42;;;7.97;;
54197;SDS011;40105;52.366;17.000;2023-03-30T13:24:00;18.08;;;8.57;;
54197;SDS011;40105;52.366;17.000;2023-03-30T13:26:26;18.17;;;8.98;;
54197;SDS011;40105;52.366;17.000;2023-03-30T13:29:02;18.80;;;8.05;;
54197;SDS011;40105;52.366;17.000;2023-03-30T13:31:49;39.60;;;8.57;;
54197;SDS011;40105;52.366;17.000;2023-03-30T13:34:32;17.00;;;8.10;;
54197;SDS011;40105;52.366;17.000;2023-03-30T13:42:12;16.75;;;8.57;;
54197;SDS011;40105;52.366;17.000;2023-03-30T13:44:44;16.83;;;7.50;;
54197;SDS011;40105;52.366;17.000;2023-03-30T13:47:33;25.48;;;8.15;;
54197;SDS011;40105;52.366;17.000;2023-03-30T13:50:00;18.33;;;8.32;;
54197;SDS011;40105;52.366;17.000;2023-03-30T13:52:40;18.70;;;7.30;;
54197;SDS011;40105;52.366;17.000;2023-03-30T13:55:14;20.63;;;8.40;;
54197;SDS011;40105;52.366;17.000;2023-03-30T13:57:40;21.40;;;8.73;;
54197;SDS011;40105;52.366;17.000;2023-03-30T14:02:40;21.27;;;8.23;;
54197;SDS011;40105;52.366;17.000;2023-03-30T14:05:21;21.37;;;8.87;;
54197;SDS011;40105;52.366;17.000;2023-03-30T14:10:17;18.33;;;8.57;;
54197;SDS011;40105;52.366;17.000;2023-03-30T14:12:42;19.60;;;8.27;;
54197;SDS011;40105;52.366;17.000;2023-03-30T14:15:15;20.67;;;9.00;;
54197;SDS011;40105;52.366;17.000;2023-03-30T14:17:40;27.48;;;9.10;;
54197;SDS011;40105;52.366;17.000;2023-03-30T14:20:08;23.23;;;11.50;;
54197;SDS011;40105;52.366;17.000;2023-03-30T14:22:37;42.65;;;16.80;;
54197;SDS011;40105;52.366;17.000;2023-03-30T14:25:05;45.05;;;20.63;;
54197;SDS011;40105;52.366;17.000;2023-03-30T14:27:32;21.73;;;11.90;;
54197;SDS011;40105;52.366;17.000;2023-03-30T14:29:59;26.15;;;9.30;;
54197;SDS011;40105;52.366;17.000;2023-03-30T14:32:24;17.42;;;9.32;;
54197;SDS011;40105;52.366;17.000;2023-03-30T14:34:51;24.70;;;9.32;;
54197;SDS011;40105;52.366;17.000;2023-03-30T14:37:18;18.88;;;9.02;;
54197;SDS011;40105;52.366;17.000;2023-03-30T14:39:45;19.58;;;8.05;;
54197;SDS011;40105;52.366;17.000;2023-03-30T14:44:39;38.65;;;11.38;;
54197;SDS011;40105;52.366;17.000;2023-03-30T14:47:05;17.25;;;6.90;;
54197;SDS011;40105;52.366;17.000;2023-03-30T14:49:30;18.43;;;5.97;;
54197;SDS011;40105;52.366;17.000;2023-03-30T14:52:00;16.40;;;6.32;;
54197;SDS011;40105;52.366;17.000;2023-03-30T14:54:25;14.60;;;6.60;;
54197;SDS011;40105;52.366;17.000;2023-03-30T14:56:57;17.30;;;5.35;;
54197;SDS011;40105;52.366;17.000;2023-03-30T14:59:23;12.63;;;5.85;;
54197;SDS011;40105;52.366;17.000;2023-03-30T15:01:49;15.68;;;5.50;;
54197;SDS011;40105;52.366;17.000;2023-03-30T15:04:24;12.38;;;4.43;;
54197;SDS011;40105;52.366;17.000;2023-03-30T15:06:51;13.57;;;4.28;;
54197;SDS011;40105;52.366;17.000;2023-03-30T15:09:18;31.48;;;9.05;;
54197;SDS011;40105;52.366;17.000;2023-03-30T15:11:44;20.65;;;7.68;;
54197;SDS011;40105;52.366;17.000;2023-03-30T15:14:15;23.58;;;6.72;;
54197;SDS011;40105;52.366;17.000;2023-03-30T15:16:41;20.05;;;6.15;;
54197;SDS011;40105;52.366;17.000;2023-03-30T15:19:10;20.65;;;5.82;;
54197;SDS011;40105;52.366;17.000;2023-03-30T15:21:36;10.30;;;4.60;;
54197;SDS011;40105;52.366;17.000;2023-03-30T15:24:03;20.00;;;6.43;;
54197;SDS011;40105;52.366;17.000;2023-03-30T15:26:29;13.15;;;5.75;;
54197;SDS011;40105;52.366;17.000;2023-03-30T15:28:55;14.95;;;5.75;;
54197;SDS011;40105;52.366;17.000;2023-03-30T15:31:20;17.60;;;5.82;;
54197;SDS011;40105;52.366;17.000;2023-03-30T15:33:53;22.25;;;7.90;;
54197;SDS011;40105;52.366;17.000;2023-03-30T15:36:21;18.27;;;7.95;;
54197;SDS011;40105;52.366;17.000;2023-03-30T15:38:50;20.02;;;8.77;;
54197;SDS011;40105;52.366;17.000;2023-03-30T15:41:16;29.17;;;9.05;;
54197;SDS011;40105;52.366;17.000;2023-03-30T15:43:51;26.05;;;9.60;;
54197;SDS011;40105;52.366;17.000;2023-03-30T15:46:16;26.05;;;8.32;;
54197;SDS011;40105;52.366;17.000;2023-03-30T15:48:42;27.90;;;7.43;;
54197;SDS011;40105;52.366;17.000;2023-03-30T15:53:41;12.43;;;6.28;;
54197;SDS011;40105;52.366;17.000;2023-03-30T15:56:10;20.50;;;7.15;;
54197;SDS011;40105;52.366;17.000;2023-03-30T15:58:37;16.67;;;6.32;;
54197;SDS011;40105;52.366;17.000;2023-03-30T16:01:02;17.60;;;8.33;;
54197;SDS011;40105;52.366;17.000;2023-03-30T16:03:35;23.45;;;11.50;;
54197;SDS011;40105;52.366;17.000;2023-03-30T16:06:02;19.38;;;8.07;;
54197;SDS011;40105;52.366;17.000;2023-03-30T16:08:27;18.30;;;6.10;;
54197;SDS011;40105;52.366;17.000;2023-03-30T16:10:53;25.17;;;7.03;;
54197;SDS011;40105;52.366;17.000;2023-03-30T16:13:18;16.00;;;5.87;;
54197;SDS011;40105;52.366;17.000;2023-03-30T16:15:43;14.67;;;6.27;;
54197;SDS011;40105;52.366;17.000;2023-03-30T16:18:09;19.93;;;6.47;;
54197;SDS011;40105;52.366;17.000;2023-03-30T16:20:35;19.95;;;6.32;;